sensor_id;sensor_type;location;lat;lon;timestamp;pressure;altitude;pressure_sealevel;temperature;humidity
83514;BME280;73447;53.262;10.424;2024-02-21T00:00:51;101847.19;;;7.03;92.20
83514;BME280;73447;53.262;10.424;2024-02-21T00:03:17;101847.72;;;6.92;93.32
83514;BME280;73447;53.262;10.424;2024-02-21T00:05:42;101841.38;;;7.00;92.53
83514;BME280;73447;53.262;10.424;2024-02-21T00:08:08;101839.78;;;7.05;92.72
83514;BME280;73447;53.262;10.424;2024-02-21T00:10:33;101837.53;;;7.09;92.12
83514;BME280;73447;53.262;10.424;2024-02-21T00:12:59;101833.63;;;7.12;92.29
83514;BME280;73447;53.262;10.424;2024-02-21T00:15:25;101828.88;;;7.14;92.42
83514;BME280;73447;53.262;10.424;2024-02-21T00:17:50;101834.41;;;7.05;92.43
83514;BME280;73447;53.262;10.424;2024-02-21T00:20:16;101826.50;;;7.25;91.08
83514;BME280;73447;53.262;10.424;2024-02-21T00:22:42;101823.81;;;7.25;91.18
83514;BME280;73447;53.262;10.424;2024-02-21T00:25:08;101821.63;;;7.08;91.73
83514;BME280;73447;53.262;10.424;2024-02-21T00:27:33;101814.94;;;7.03;92.40
83514;BME280;73447;53.262;10.424;2024-02-21T00:29:59;101816.19;;;7.01;92.40
83514;BME280;73447;53.262;10.424;2024-02-21T00:32:24;101812.50;;;7.09;91.15
83514;BME280;73447;53.262;10.424;2024-02-21T00:34:49;101805.81;;;7.19;91.65
83514;BME280;73447;53.262;10.424;2024-02-21T00:37:15;101801.25;;;7.20;91.39
83514;BME280;73447;53.262;10.424;2024-02-21T00:39:41;101799.13;;;7.15;91.29
83514;BME280;73447;53.262;10.424;2024-02-21T00:42:07;101798.13;;;7.16;91.47
83514;BME280;73447;53.262;10.424;2024-02-21T00:44:33;101795.19;;;7.11;92.24
83514;BME280;73447;53.262;10.424;2024-02-21T00:46:58;101795.53;;;7.01;92.26
83514;BME280;73447;53.262;10.424;2024-02-21T00:49:23;101789.03;;;6.89;92.78
83514;BME280;73447;53.262;10.424;2024-02-21T00:51:49;101787.72;;;7.06;92.94
83514;BME280;73447;53.262;10.424;2024-02-21T00:54:14;101782.81;;;7.17;92.43
83514;BME280;73447;53.262;10.424;2024-02-21T00:56:39;101771.25;;;7.16;92.07
83514;BME280;73447;53.262;10.424;2024-02-21T00:59:05;101777.44;;;7.17;92.41
83514;BME280;73447;53.262;10.424;2024-02-21T01:01:30;101766.31;;;7.20;92.45
83514;BME280;73447;53.262;10.424;2024-02-21T01:03:56;101760.56;;;7.23;92.25
83514;BME280;73447;53.262;10.424;2024-02-21T01:06:21;101751.25;;;7.25;91.98
83514;BME280;73447;53.262;10.424;2024-02-21T01:08:47;101752.25;;;7.18;92.27
83514;BME280;73447;53.262;10.424;2024-02-21T01:11:13;101755.19;;;7.23;91.70
83514;BME280;73447;53.262;10.424;2024-02-21T01:13:39;101750.09;;;7.06;92.61
83514;BME280;73447;53.262;10.424;2024-02-21T01:16:05;101746.41;;;7.08;92.64
83514;BME280;73447;53.262;10.424;2024-02-21T01:18:32;101744.81;;;7.20;92.53
83514;BME280;73447;53.262;10.424;2024-02-21T01:20:57;101751.44;;;7.17;92.77
83514;BME280;73447;53.262;10.424;2024-02-21T01:23:23;101749.72;;;7.10;92.87
83514;BME280;73447;53.262;10.424;2024-02-21T01:25:48;101747.28;;;7.15;92.57
83514;BME280;73447;53.262;10.424;2024-02-21T01:28:13;101745.16;;;7.10;92.58
83514;BME280;73447;53.262;10.424;2024-02-21T01:30:39;101739.06;;;7.23;92.37
83514;BME280;73447;53.262;10.424;2024-02-21T01:33:04;101735.91;;;7.13;93.41
83514;BME280;73447;53.262;10.424;2024-02-21T01:35:30;101726.66;;;7.22;92.37
83514;BME280;73447;53.262;10.424;2024-02-21T01:37:55;101717.06;;;7.06;92.72
83514;BME280;73447;53.262;10.424;2024-02-21T01:40:20;101716.13;;;7.27;92.41
83514;BME280;73447;53.262;10.424;2024-02-21T01:42:46;101723.03;;;7.36;91.44
83514;BME280;73447;53.262;10.424;2024-02-21T01:45:13;101715.16;;;7.35;91.80
83514;BME280;73447;53.262;10.424;2024-02-21T01:47:38;101717.41;;;7.31;91.83
83514;BME280;73447;53.262;10.424;2024-02-21T01:50:04;101715.50;;;7.25;92.00
83514;BME280;73447;53.262;10.424;2024-02-21T01:52:30;101709.75;;;7.28;92.46
83514;BME280;73447;53.262;10.424;2024-02-21T01:54:57;101708.88;;;7.21;92.83
83514;BME280;73447;53.262;10.424;2024-02-21T01:57:23;101708.50;;;7.24;92.28
83514;BME280;73447;53.262;10.424;2024-02-21T01:59:49;101702.09;;;7.25;92.15
83514;BME280;73447;53.262;10.424;2024-02-21T02:02:15;101702.66;;;7.20;92.04
83514;BME280;73447;53.262;10.424;2024-02-21T02:04:42;101704.72;;;7.18;92.49
83514;BME280;73447;53.262;10.424;2024-02-21T02:07:08;101696.91;;;7.23;92.30
83514;BME280;73447;53.262;10.424;2024-02-21T02:09:34;101692.44;;;7.37;91.95
83514;BME280;73447;53.262;10.424;2024-02-21T02:12:00;101685.44;;;7.43;91.45
83514;BME280;73447;53.262;10.424;2024-02-21T02:14:25;101665.31;;;7.32;91.54
83514;BME280;73447;53.262;10.424;2024-02-21T02:16:50;101666.25;;;7.46;90.84
83514;BME280;73447;53.262;10.424;2024-02-21T02:19:16;101663.47;;;7.33;91.33
83514;BME280;73447;53.262;10.424;2024-02-21T02:21:46;101666.06;;;7.13;93.62
83514;BME280;73447;53.262;10.424;2024-02-21T02:24:13;101660.22;;;7.37;92.55
83514;BME280;73447;53.262;10.424;2024-02-21T02:26:39;101646.47;;;7.25;92.92
83514;BME280;73447;53.262;10.424;2024-02-21T02:29:05;101642.91;;;7.12;92.97
83514;BME280;73447;53.262;10.424;2024-02-21T02:31:30;101625.78;;;7.13;92.77
83514;BME280;73447;53.262;10.424;2024-02-21T02:33:56;101626.66;;;7.27;92.80
83514;BME280;73447;53.262;10.424;2024-02-21T02:36:21;101618.44;;;7.35;92.84
83514;BME280;73447;53.262;10.424;2024-02-21T02:38:46;101619.16;;;7.15;92.68
83514;BME280;73447;53.262;10.424;2024-02-21T02:41:12;101618.34;;;7.15;93.50
83514;BME280;73447;53.262;10.424;2024-02-21T02:43:37;101606.03;;;7.40;92.14
83514;BME280;73447;53.262;10.424;2024-02-21T02:46:03;101596.53;;;7.38;92.23
83514;BME280;73447;53.262;10.424;2024-02-21T02:48:29;101585.81;;;7.45;92.16
83514;BME280;73447;53.262;10.424;2024-02-21T02:50:54;101584.53;;;7.40;92.32
83514;BME280;73447;53.262;10.424;2024-02-21T02:53:20;101581.81;;;7.34;92.63
83514;BME280;73447;53.262;10.424;2024-02-21T02:55:45;101577.53;;;7.39;91.65
83514;BME280;73447;53.262;10.424;2024-02-21T02:58:11;101568.41;;;7.40;91.83
83514;BME280;73447;53.262;10.424;2024-02-21T03:00:37;101564.88;;;7.27;92.23
83514;BME280;73447;53.262;10.424;2024-02-21T03:03:04;101569.88;;;7.36;92.27
83514;BME280;73447;53.262;10.424;2024-02-21T03:05:29;101590.28;;;7.24;92.74
83514;BME280;73447;53.262;10.424;2024-02-21T03:07:55;101577.69;;;7.31;92.33
83514;BME280;73447;53.262;10.424;2024-02-21T03:10:20;101581.63;;;7.35;91.77
83514;BME280;73447;53.262;10.424;2024-02-21T03:12:46;101577.53;;;7.39;91.83
83514;BME280;73447;53.262;10.424;2024-02-21T03:15:12;101568.88;;;7.44;91.70
83514;BME280;73447;53.262;10.424;2024-02-21T03:17:38;101549.03;;;7.52;90.99
83514;BME280;73447;53.262;10.424;2024-02-21T03:20:04;101553.53;;;7.38;91.91
83514;BME280;73447;53.262;10.424;2024-02-21T03:22:31;101551.50;;;7.47;91.24
83514;BME280;73447;53.262;10.424;2024-02-21T03:24:57;101543.66;;;7.52;91.18
83514;BME280;73447;53.262;10.424;2024-02-21T03:27:22;101545.53;;;7.58;90.73
83514;BME280;73447;53.262;10.424;2024-02-21T03:29:48;101553.38;;;7.53;90.78
83514;BME280;73447;53.262;10.424;2024-02-21T03:32:13;101555.00;;;7.54;89.86
83514;BME280;73447;53.262;10.424;2024-02-21T03:34:38;101552.75;;;7.51;90.07
83514;BME280;73447;53.262;10.424;2024-02-21T03:37:04;101546.91;;;7.40;90.40
83514;BME280;73447;53.262;10.424;2024-02-21T03:39:33;101550.06;;;7.51;90.33
83514;BME280;73447;53.262;10.424;2024-02-21T03:41:59;101550.69;;;7.53;89.71
83514;BME280;73447;53.262;10.424;2024-02-21T03:44:30;101548.41;;;7.56;89.58
83514;BME280;73447;53.262;10.424;2024-02-21T03:46:56;101561.25;;;7.61;89.04
83514;BME280;73447;53.262;10.424;2024-02-21T03:49:22;101560.81;;;7.51;89.29
83514;BME280;73447;53.262;10.424;2024-02-21T03:51:47;101568.66;;;7.59;88.85
83514;BME280;73447;53.262;10.424;2024-02-21T03:54:13;101561.84;;;7.50;89.87
83514;BME280;73447;53.262;10.424;2024-02-21T03:56:38;101563.72;;;7.56;88.98
83514;BME280;73447;53.262;10.424;2024-02-21T03:59:07;101565.94;;;7.46;89.43
83514;BME280;73447;53.262;10.424;2024-02-21T04:01:34;101563.94;;;7.54;88.93
83514;BME280;73447;53.262;10.424;2024-02-21T04:03:59;101565.53;;;7.49;88.60
83514;BME280;73447;53.262;10.424;2024-02-21T04:06:25;101570.53;;;7.58;88.51
83514;BME280;73447;53.262;10.424;2024-02-21T04:08:50;101572.03;;;7.68;88.50
83514;BME280;73447;53.262;10.424;2024-02-21T04:11:15;101561.88;;;7.70;88.17
83514;BME280;73447;53.262;10.424;2024-02-21T04:13:42;101568.66;;;7.52;89.02
83514;BME280;73447;53.262;10.424;2024-02-21T04:16:08;101558.53;;;7.48;89.56
83514;BME280;73447;53.262;10.424;2024-02-21T04:18:33;101573.44;;;7.57;89.07
83514;BME280;73447;53.262;10.424;2024-02-21T04:20:59;101561.47;;;7.66;88.19
83514;BME280;73447;53.262;10.424;2024-02-21T04:23:24;101561.47;;;7.66;87.74
83514;BME280;73447;53.262;10.424;2024-02-21T04:25:49;101563.50;;;7.64;88.70
83514;BME280;73447;53.262;10.424;2024-02-21T04:28:15;101557.72;;;7.67;88.43
83514;BME280;73447;53.262;10.424;2024-02-21T04:30:40;101557.72;;;7.67;88.52
83514;BME280;73447;53.262;10.424;2024-02-21T04:33:05;101552.38;;;7.80;87.50
83514;BME280;73447;53.262;10.424;2024-02-21T04:35:31;101560.25;;;7.82;87.55
83514;BME280;73447;53.262;10.424;2024-02-21T04:37:56;101556.31;;;7.71;87.21
83514;BME280;73447;53.262;10.424;2024-02-21T04:40:21;101547.63;;;7.69;87.62
83514;BME280;73447;53.262;10.424;2024-02-21T04:42:47;101542.66;;;7.66;88.54
83514;BME280;73447;53.262;10.424;2024-02-21T04:45:13;101540.34;;;7.50;88.24
83514;BME280;73447;53.262;10.424;2024-02-21T04:47:38;101533.34;;;7.69;88.06
83514;BME280;73447;53.262;10.424;2024-02-21T04:50:04;101532.13;;;7.78;88.09
83514;BME280;73447;53.262;10.424;2024-02-21T04:52:29;101530.81;;;7.54;89.61
83514;BME280;73447;53.262;10.424;2024-02-21T04:54:55;101521.91;;;7.40;89.52
83514;BME280;73447;53.262;10.424;2024-02-21T04:57:21;101522.75;;;7.54;89.80
83514;BME280;73447;53.262;10.424;2024-02-21T04:59:46;101516.16;;;7.50;90.02
83514;BME280;73447;53.262;10.424;2024-02-21T05:02:13;101518.84;;;7.50;90.38
83514;BME280;73447;53.262;10.424;2024-02-21T05:04:38;101523.97;;;7.31;90.90
83514;BME280;73447;53.262;10.424;2024-02-21T05:07:05;101507.66;;;7.39;90.90
83514;BME280;73447;53.262;10.424;2024-02-21T05:09:30;101517.34;;;7.40;90.46
83514;BME280;73447;53.262;10.424;2024-02-21T05:11:56;101506.78;;;7.32;91.01
83514;BME280;73447;53.262;10.424;2024-02-21T05:14:24;101501.69;;;7.51;90.84
83514;BME280;73447;53.262;10.424;2024-02-21T05:16:49;101512.63;;;7.42;91.02
83514;BME280;73447;53.262;10.424;2024-02-21T05:19:15;101505.38;;;7.43;90.94
83514;BME280;73447;53.262;10.424;2024-02-21T05:21:40;101517.41;;;7.60;90.13
83514;BME280;73447;53.262;10.424;2024-02-21T05:24:05;101511.19;;;7.47;91.11
83514;BME280;73447;53.262;10.424;2024-02-21T05:26:31;101514.06;;;7.45;91.40
83514;BME280;73447;53.262;10.424;2024-02-21T05:28:56;101510.56;;;7.45;91.18
83514;BME280;73447;53.262;10.424;2024-02-21T05:31:21;101508.25;;;7.28;92.35
83514;BME280;73447;53.262;10.424;2024-02-21T05:33:47;101507.19;;;7.16;93.18
83514;BME280;73447;53.262;10.424;2024-02-21T05:36:13;101501.13;;;7.07;92.93
83514;BME280;73447;53.262;10.424;2024-02-21T05:38:39;101500.16;;;7.15;93.67
83514;BME280;73447;53.262;10.424;2024-02-21T05:41:05;101510.88;;;7.08;94.04
83514;BME280;73447;53.262;10.424;2024-02-21T05:43:30;101496.00;;;7.19;93.71
83514;BME280;73447;53.262;10.424;2024-02-21T05:45:56;101507.81;;;7.18;93.55
83514;BME280;73447;53.262;10.424;2024-02-21T05:48:22;101504.72;;;7.21;93.02
83514;BME280;73447;53.262;10.424;2024-02-21T05:50:47;101498.94;;;7.17;94.26
83514;BME280;73447;53.262;10.424;2024-02-21T05:53:13;101504.72;;;7.21;93.67
83514;BME280;73447;53.262;10.424;2024-02-21T05:55:38;101497.69;;;7.20;94.31
83514;BME280;73447;53.262;10.424;2024-02-21T05:58:04;101500.56;;;7.18;95.16
83514;BME280;73447;53.262;10.424;2024-02-21T06:00:31;101510.50;;;7.18;93.88
83514;BME280;73447;53.262;10.424;2024-02-21T06:02:56;101501.16;;;7.14;94.10
83514;BME280;73447;53.262;10.424;2024-02-21T06:05:21;101498.69;;;7.05;94.90
83514;BME280;73447;53.262;10.424;2024-02-21T06:07:47;101497.66;;;7.13;95.48
83514;BME280;73447;53.262;10.424;2024-02-21T06:10:12;101494.78;;;7.15;94.70
83514;BME280;73447;53.262;10.424;2024-02-21T06:12:38;101494.34;;;7.04;95.33
83514;BME280;73447;53.262;10.424;2024-02-21T06:15:03;101493.13;;;7.20;94.71
83514;BME280;73447;53.262;10.424;2024-02-21T06:17:29;101492.69;;;7.10;95.57
83514;BME280;73447;53.262;10.424;2024-02-21T06:19:54;101493.94;;;7.08;95.35
83514;BME280;73447;53.262;10.424;2024-02-21T06:22:20;101501.38;;;7.05;95.81
83514;BME280;73447;53.262;10.424;2024-02-21T06:24:45;101500.16;;;7.15;94.88
83514;BME280;73447;53.262;10.424;2024-02-21T06:27:11;101503.84;;;7.14;95.35
83514;BME280;73447;53.262;10.424;2024-02-21T06:29:37;101493.09;;;7.14;94.92
83514;BME280;73447;53.262;10.424;2024-02-21T06:32:02;101507.13;;;7.02;95.38
83514;BME280;73447;53.262;10.424;2024-02-21T06:34:28;101517.88;;;7.02;95.24
83514;BME280;73447;53.262;10.424;2024-02-21T06:36:53;101507.97;;;7.10;95.29
83514;BME280;73447;53.262;10.424;2024-02-21T06:39:18;101507.19;;;7.16;94.56
83514;BME280;73447;53.262;10.424;2024-02-21T06:41:44;101508.44;;;7.20;94.55
83514;BME280;73447;53.262;10.424;2024-02-21T06:44:10;101503.44;;;7.17;95.26
83514;BME280;73447;53.262;10.424;2024-02-21T06:46:35;101509.63;;;7.04;95.71
83514;BME280;73447;53.262;10.424;2024-02-21T06:49:01;101501.16;;;7.14;95.35
83514;BME280;73447;53.262;10.424;2024-02-21T06:51:27;101498.91;;;7.11;96.23
83514;BME280;73447;53.262;10.424;2024-02-21T06:53:54;101496.03;;;7.12;96.70
83514;BME280;73447;53.262;10.424;2024-02-21T06:56:19;101499.88;;;6.96;97.62
83514;BME280;73447;53.262;10.424;2024-02-21T06:58:45;101500.09;;;7.01;97.93
83514;BME280;73447;53.262;10.424;2024-02-21T07:01:11;101502.63;;;7.16;97.68
83514;BME280;73447;53.262;10.424;2024-02-21T07:03:36;101491.88;;;7.10;96.94
83514;BME280;73447;53.262;10.424;2024-02-21T07:06:02;101491.88;;;7.10;97.67
83514;BME280;73447;53.262;10.424;2024-02-21T07:08:28;101500.53;;;7.12;96.88
83514;BME280;73447;53.262;10.424;2024-02-21T07:10:53;101498.72;;;7.12;98.04
83514;BME280;73447;53.262;10.424;2024-02-21T07:13:18;101501.38;;;7.19;97.99
83514;BME280;73447;53.262;10.424;2024-02-21T07:15:44;101497.00;;;7.04;97.40
83514;BME280;73447;53.262;10.424;2024-02-21T07:18:09;101510.50;;;7.18;97.91
83514;BME280;73447;53.262;10.424;2024-02-21T07:20:35;101508.03;;;7.23;97.24
83514;BME280;73447;53.262;10.424;2024-02-21T07:23:03;101505.16;;;7.31;96.95
83514;BME280;73447;53.262;10.424;2024-02-21T07:25:28;101519.22;;;7.33;96.19
83514;BME280;73447;53.262;10.424;2024-02-21T07:27:53;101520.25;;;7.39;96.82
83514;BME280;73447;53.262;10.424;2024-02-21T07:30:19;101522.31;;;7.43;96.05
83514;BME280;73447;53.262;10.424;2024-02-21T07:32:44;101530.78;;;7.40;96.32
83514;BME280;73447;53.262;10.424;2024-02-21T07:35:10;101526.25;;;7.34;96.32
83514;BME280;73447;53.262;10.424;2024-02-21T07:37:37;101521.72;;;7.41;97.25
83514;BME280;73447;53.262;10.424;2024-02-21T07:40:05;101533.66;;;7.32;96.47
83514;BME280;73447;53.262;10.424;2024-02-21T07:42:31;101530.63;;;7.55;96.06
83514;BME280;73447;53.262;10.424;2024-02-21T07:44:56;101529.38;;;7.51;95.91
83514;BME280;73447;53.262;10.424;2024-02-21T07:47:22;101531.25;;;7.51;96.43
83514;BME280;73447;53.262;10.424;2024-02-21T07:49:47;101525.88;;;7.51;96.33
83514;BME280;73447;53.262;10.424;2024-02-21T07:52:14;101517.81;;;7.77;95.37
83514;BME280;73447;53.262;10.424;2024-02-21T07:54:40;101526.94;;;7.76;95.15
83514;BME280;73447;53.262;10.424;2024-02-21T07:57:07;101512.69;;;7.83;94.67
83514;BME280;73447;53.262;10.424;2024-02-21T07:59:32;101518.06;;;7.89;94.41
83514;BME280;73447;53.262;10.424;2024-02-21T08:01:58;101512.66;;;7.63;95.17
83514;BME280;73447;53.262;10.424;2024-02-21T08:04:24;101511.00;;;7.55;95.10
83514;BME280;73447;53.262;10.424;2024-02-21T08:06:53;101517.81;;;7.77;94.79
83514;BME280;73447;53.262;10.424;2024-02-21T08:09:21;101515.78;;;7.79;94.27
83514;BME280;73447;53.262;10.424;2024-02-21T08:11:46;101519.72;;;8.04;93.64
83514;BME280;73447;53.262;10.424;2024-02-21T08:14:11;101513.50;;;7.90;94.11
83514;BME280;73447;53.262;10.424;2024-02-21T08:16:37;101513.91;;;7.93;93.10
83514;BME280;73447;53.262;10.424;2024-02-21T08:19:02;101511.63;;;7.90;93.64
83514;BME280;73447;53.262;10.424;2024-02-21T08:21:29;101509.97;;;7.96;93.70
83514;BME280;73447;53.262;10.424;2024-02-21T08:23:54;101520.53;;;8.17;92.49
83514;BME280;73447;53.262;10.424;2024-02-21T08:26:20;101512.66;;;8.03;92.49
83514;BME280;73447;53.262;10.424;2024-02-21T08:28:45;101523.41;;;8.03;92.34
83514;BME280;73447;53.262;10.424;2024-02-21T08:31:11;101511.00;;;8.35;91.35
83514;BME280;73447;53.262;10.424;2024-02-21T08:33:36;101505.63;;;8.48;90.33
83514;BME280;73447;53.262;10.424;2024-02-21T08:36:01;101499.19;;;8.23;90.99
83514;BME280;73447;53.262;10.424;2024-02-21T08:38:28;101496.94;;;8.20;91.44
83514;BME280;73447;53.262;10.424;2024-02-21T08:40:53;101500.22;;;8.42;90.66
83514;BME280;73447;53.262;10.424;2024-02-21T08:43:21;101497.72;;;8.53;89.73
83514;BME280;73447;53.262;10.424;2024-02-21T08:45:47;101486.34;;;8.51;89.53
83514;BME280;73447;53.262;10.424;2024-02-21T08:48:12;101481.19;;;8.30;90.81
83514;BME280;73447;53.262;10.424;2024-02-21T08:50:37;101494.25;;;8.33;90.51
83514;BME280;73447;53.262;10.424;2024-02-21T08:53:03;101488.38;;;8.63;89.87
83514;BME280;73447;53.262;10.424;2024-02-21T08:55:28;101495.63;;;8.69;88.69
83514;BME280;73447;53.262;10.424;2024-02-21T08:57:54;101491.25;;;8.68;88.99
83514;BME280;73447;53.262;10.424;2024-02-21T09:00:19;101478.19;;;8.78;88.00
83514;BME280;73447;53.262;10.424;2024-02-21T09:02:49;101483.66;;;8.58;89.10
83514;BME280;73447;53.262;10.424;2024-02-21T09:05:14;101488.16;;;8.64;89.31
83514;BME280;73447;53.262;10.424;2024-02-21T09:07:40;101490.03;;;8.64;89.04
83514;BME280;73447;53.262;10.424;2024-02-21T09:10:05;101489.69;;;8.99;88.61
83514;BME280;73447;53.262;10.424;2024-02-21T09:12:31;101490.47;;;9.06;87.79
83514;BME280;73447;53.262;10.424;2024-02-21T09:14:57;101487.47;;;9.27;86.78
83514;BME280;73447;53.262;10.424;2024-02-21T09:17:22;101482.59;;;9.11;86.66
83514;BME280;73447;53.262;10.424;2024-02-21T09:19:48;101475.91;;;9.20;87.89
83514;BME280;73447;53.262;10.424;2024-02-21T09:22:13;101485.34;;;9.36;86.42
83514;BME280;73447;53.262;10.424;2024-02-21T09:24:39;101480.50;;;9.45;85.72
83514;BME280;73447;53.262;10.424;2024-02-21T09:27:05;101478.84;;;9.12;86.18
83514;BME280;73447;53.262;10.424;2024-02-21T09:29:31;101481.06;;;8.83;87.31
83514;BME280;73447;53.262;10.424;2024-02-21T09:31:58;101487.13;;;9.17;86.37
83514;BME280;73447;53.262;10.424;2024-02-21T09:34:24;101484.63;;;9.16;85.72
83514;BME280;73447;53.262;10.424;2024-02-21T09:36:49;101479.56;;;9.33;86.69
83514;BME280;73447;53.262;10.424;2024-02-21T09:39:14;101482.22;;;9.01;87.87
83514;BME280;73447;53.262;10.424;2024-02-21T09:41:48;101477.50;;;8.89;87.33
83514;BME280;73447;53.262;10.424;2024-02-21T09:44:19;101482.31;;;8.81;88.51
83514;BME280;73447;53.262;10.424;2024-02-21T09:47:03;101489.81;;;8.72;88.50
83514;BME280;73447;53.262;10.424;2024-02-21T09:49:34;101479.69;;;8.61;88.82
83514;BME280;73447;53.262;10.424;2024-02-21T09:52:08;101479.31;;;8.37;91.08
83514;BME280;73447;53.262;10.424;2024-02-21T09:54:44;101465.47;;;8.27;90.51
83514;BME280;73447;53.262;10.424;2024-02-21T09:57:17;101468.78;;;8.09;90.67
83514;BME280;73447;53.262;10.424;2024-02-21T09:59:44;101468.19;;;8.00;91.79
83514;BME280;73447;53.262;10.424;2024-02-21T10:02:10;101466.13;;;8.02;90.48
83514;BME280;73447;53.262;10.424;2024-02-21T10:04:39;101472.28;;;8.23;90.79
83514;BME280;73447;53.262;10.424;2024-02-21T10:07:05;101468.59;;;8.10;91.13
83514;BME280;73447;53.262;10.424;2024-02-21T10:09:30;101466.47;;;8.32;89.70
83514;BME280;73447;53.262;10.424;2024-02-21T10:12:07;101473.75;;;8.18;90.80
83514;BME280;73447;53.262;10.424;2024-02-21T10:14:32;101466.72;;;8.04;90.61
83514;BME280;73447;53.262;10.424;2024-02-21T10:16:58;101463.81;;;8.26;90.16
83514;BME280;73447;53.262;10.424;2024-02-21T10:19:27;101464.19;;;8.43;88.64
83514;BME280;73447;53.262;10.424;2024-02-21T10:24:27;101463.59;;;8.27;88.83
83514;BME280;73447;53.262;10.424;2024-02-21T10:27:02;101463.38;;;8.49;87.99
83514;BME280;73447;53.262;10.424;2024-02-21T10:29:31;101457.13;;;8.62;86.89
83514;BME280;73447;53.262;10.424;2024-02-21T10:32:23;101459.84;;;9.00;86.47
83514;BME280;73447;53.262;10.424;2024-02-21T10:35:03;101455.22;;;9.14;84.25
83514;BME280;73447;53.262;10.424;2024-02-21T10:37:32;101455.94;;;9.28;84.29
83514;BME280;73447;53.262;10.424;2024-02-21T10:39:57;101449.31;;;9.31;84.25
83514;BME280;73447;53.262;10.424;2024-02-21T10:42:23;101448.22;;;9.63;81.87
83514;BME280;73447;53.262;10.424;2024-02-21T10:44:55;101450.38;;;9.55;82.37
83514;BME280;73447;53.262;10.424;2024-02-21T10:47:24;101450.59;;;9.53;82.26
83514;BME280;73447;53.262;10.424;2024-02-21T10:50:03;101447.03;;;9.84;80.75
83514;BME280;73447;53.262;10.424;2024-02-21T10:52:48;101437.78;;;9.74;81.14
83514;BME280;73447;53.262;10.424;2024-02-21T10:55:20;101441.19;;;9.62;81.63
83514;BME280;73447;53.262;10.424;2024-02-21T10:57:49;101442.81;;;9.63;81.71
83514;BME280;73447;53.262;10.424;2024-02-21T11:00:17;101422.59;;;9.54;81.52
83514;BME280;73447;53.262;10.424;2024-02-21T11:02:43;101429.06;;;9.72;79.65
83514;BME280;73447;53.262;10.424;2024-02-21T11:05:09;101418.09;;;9.92;79.94
83514;BME280;73447;53.262;10.424;2024-02-21T11:07:37;101405.16;;;10.00;78.12
83514;BME280;73447;53.262;10.424;2024-02-21T11:10:04;101411.38;;;9.57;80.53
83514;BME280;73447;53.262;10.424;2024-02-21T11:12:32;101414.06;;;9.82;79.01
83514;BME280;73447;53.262;10.424;2024-02-21T11:15:08;101420.16;;;9.46;79.75
83514;BME280;73447;53.262;10.424;2024-02-21T11:17:33;101408.84;;;9.62;78.78
83514;BME280;73447;53.262;10.424;2024-02-21T11:19:59;101408.06;;;9.55;78.68
83514;BME280;73447;53.262;10.424;2024-02-21T11:22:41;101415.41;;;9.16;81.03
83514;BME280;73447;53.262;10.424;2024-02-21T11:25:07;101406.38;;;9.04;81.37
83514;BME280;73447;53.262;10.424;2024-02-21T11:27:37;101408.88;;;8.99;81.42
83514;BME280;73447;53.262;10.424;2024-02-21T11:30:04;101408.13;;;9.23;80.88
83514;BME280;73447;53.262;10.424;2024-02-21T11:32:30;101403.56;;;8.85;82.06
83514;BME280;73447;53.262;10.424;2024-02-21T11:35:00;101403.41;;;8.73;83.05
83514;BME280;73447;53.262;10.424;2024-02-21T11:37:34;101409.53;;;8.42;85.19
83514;BME280;73447;53.262;10.424;2024-02-21T11:40:02;101393.16;;;8.50;84.86
83514;BME280;73447;53.262;10.424;2024-02-21T11:42:29;101395.47;;;8.33;85.55
83514;BME280;73447;53.262;10.424;2024-02-21T11:44:56;101397.56;;;8.31;85.55
83514;BME280;73447;53.262;10.424;2024-02-21T11:47:22;101389.25;;;8.46;85.83
83514;BME280;73447;53.262;10.424;2024-02-21T11:49:49;101394.44;;;8.34;85.97
83514;BME280;73447;53.262;10.424;2024-02-21T11:52:26;101393.03;;;8.18;86.66
83514;BME280;73447;53.262;10.424;2024-02-21T11:54:52;101375.97;;;8.58;85.41
83514;BME280;73447;53.262;10.424;2024-02-21T11:57:19;101375.75;;;8.60;85.04
83514;BME280;73447;53.262;10.424;2024-02-21T11:59:45;101376.81;;;8.52;84.81
83514;BME280;73447;53.262;10.424;2024-02-21T12:02:12;101378.25;;;8.41;85.44
83514;BME280;73447;53.262;10.424;2024-02-21T12:04:37;101368.94;;;8.50;84.41
83514;BME280;73447;53.262;10.424;2024-02-21T12:07:03;101359.53;;;8.21;86.33
83514;BME280;73447;53.262;10.424;2024-02-21T12:09:30;101358.66;;;8.27;85.27
83514;BME280;73447;53.262;10.424;2024-02-21T12:12:03;101348.22;;;8.51;84.56
83514;BME280;73447;53.262;10.424;2024-02-21T12:14:30;101340.31;;;8.56;84.19
83514;BME280;73447;53.262;10.424;2024-02-21T12:16:56;101344.91;;;8.56;83.71
83514;BME280;73447;53.262;10.424;2024-02-21T12:19:21;101334.41;;;8.79;83.34
83514;BME280;73447;53.262;10.424;2024-02-21T12:21:48;101342.88;;;8.44;84.94
83514;BME280;73447;53.262;10.424;2024-02-21T12:24:21;101340.28;;;8.63;83.43
83514;BME280;73447;53.262;10.424;2024-02-21T12:26:48;101330.41;;;8.88;82.54
83514;BME280;73447;53.262;10.424;2024-02-21T12:29:14;101323.44;;;9.06;81.07
83514;BME280;73447;53.262;10.424;2024-02-21T12:31:40;101326.50;;;8.84;81.89
83514;BME280;73447;53.262;10.424;2024-02-21T12:34:05;101320.47;;;8.89;83.02
83514;BME280;73447;53.262;10.424;2024-02-21T12:36:32;101331.03;;;9.16;81.80
83514;BME280;73447;53.262;10.424;2024-02-21T12:38:57;101317.03;;;9.32;80.31
83514;BME280;73447;53.262;10.424;2024-02-21T12:41:23;101316.84;;;9.52;78.58
83514;BME280;73447;53.262;10.424;2024-02-21T12:43:50;101318.53;;;8.96;80.97
83514;BME280;73447;53.262;10.424;2024-02-21T12:46:16;101314.53;;;9.31;80.07
83514;BME280;73447;53.262;10.424;2024-02-21T12:48:41;101312.31;;;9.46;79.25